createdAt,value
2017-11-28T00:00:03.547Z,1.1
2017-11-28T00:15:02.819Z,1.2
2017-11-28T00:30:03.581Z,1.2
2017-11-28T00:45:03.257Z,1.2
2017-11-28T01:00:02.841Z,1.4
2017-11-28T01:15:03.493Z,1.3
2017-11-28T01:30:03.162Z,1.2
2017-11-28T01:45:03.030Z,1.2
2017-11-28T02:00:02.800Z,1.2
2017-11-28T02:15:03.391Z,1.1
2017-11-28T02:30:03.175Z,1.1
2017-11-28T02:45:02.734Z,1.1
2017-11-28T03:00:04.442Z,1.1
2017-11-28T03:15:02.937Z,1.1
2017-11-28T03:30:02.591Z,1.1
2017-11-28T03:45:03.161Z,1.2
2017-11-28T04:00:02.742Z,1.2
2017-11-28T04:15:03.385Z,1.2
2017-11-28T04:30:03.016Z,1.3
2017-11-28T04:45:02.604Z,1.3
2017-11-28T05:00:03.259Z,1.3
2017-11-28T05:15:02.865Z,1.1
2017-11-28T05:30:02.555Z,1.1
2017-11-28T05:45:03.248Z,0.8
2017-11-28T06:00:02.831Z,0.9
2017-11-28T06:15:03.479Z,0.9
2017-11-28T06:30:03.146Z,0.9
2017-11-28T06:45:02.773Z,0.9
2017-11-28T07:00:07.968Z,0.8
2017-11-28T07:15:02.526Z,0.6
2017-11-28T07:30:03.171Z,0.6
2017-11-28T07:45:02.777Z,0.5
2017-11-28T08:00:03.377Z,0.6
2017-11-28T08:15:02.918Z,0.7
2017-11-28T08:30:02.603Z,1.1
2017-11-28T08:45:03.175Z,1.3
2017-11-28T09:00:02.768Z,1.8
2017-11-28T09:15:03.340Z,1.9
2017-11-28T09:30:03.025Z,2.5
2017-11-28T09:45:02.631Z,3.1
2017-11-28T10:00:03.239Z,3.4
2017-11-28T10:15:02.841Z,3.5
2017-11-28T10:30:03.465Z,3.8
2017-11-28T10:45:03.034Z,4.2
2017-11-28T11:00:02.659Z,4.5
2017-11-28T11:15:03.262Z,4.9
2017-11-28T11:30:02.908Z,5.1
2017-11-28T11:45:03.494Z,5.2
2017-11-28T12:00:03.039Z,5.4
2017-11-28T12:15:02.659Z,5.4
2017-11-28T12:30:03.305Z,5.5
2017-11-28T12:45:02.879Z,5.5
2017-11-28T13:00:03.467Z,5.6
2017-11-28T13:15:03.159Z,5.6
2017-11-28T13:30:02.769Z,5.6
2017-11-28T13:45:03.381Z,5.4
2017-11-28T14:00:02.958Z,5.5
2017-11-28T14:15:02.534Z,5.5
2017-11-28T14:30:03.159Z,5.6
2017-11-28T14:45:02.724Z,5.6
2017-11-28T15:00:03.503Z,5.6
2017-11-28T15:15:03.071Z,5.6
2017-11-28T15:30:02.679Z,5.5
2017-11-28T15:45:03.289Z,5
2017-11-28T16:00:02.832Z,4.9
2017-11-28T16:15:03.419Z,4.8
2017-11-28T16:30:03.074Z,4.5
2017-11-28T16:45:02.687Z,4.4
2017-11-28T17:00:03.265Z,4.2
2017-11-28T17:15:02.890Z,4
2017-11-28T17:30:02.547Z,3.9
2017-11-28T17:45:03.126Z,3.7
2017-11-28T18:00:02.685Z,3.6
2017-11-28T18:15:03.293Z,3.4
2017-11-28T18:30:02.933Z,3.4
2017-11-28T18:45:02.544Z,3.3
2017-11-28T19:00:03.147Z,3.2
2017-11-28T19:15:02.705Z,3.1
2017-11-28T19:30:03.362Z,3.2
2017-11-28T19:45:02.964Z,3.1
2017-11-28T20:00:02.510Z,3.1
2017-11-28T20:15:03.125Z,3
2017-11-28T20:30:02.822Z,3.1
2017-11-28T20:45:03.362Z,3
2017-11-28T21:00:02.983Z,3
2017-11-28T21:15:02.542Z,3
2017-11-28T21:30:03.170Z,3
2017-11-28T21:45:02.789Z,2.9
2017-11-28T22:00:03.385Z,3
2017-11-28T22:15:02.972Z,2.9
2017-11-28T22:30:02.565Z,2.8
2017-11-28T22:45:03.174Z,2.8
2017-11-28T23:00:02.717Z,2.9
2017-11-28T23:15:03.245Z,2.8
2017-11-28T23:30:02.925Z,2.6
2017-11-28T23:45:02.607Z,2.8
